Home > Products > Valid Products > TAF

000
FTUS43 KIWX 290500
TAFFWA
TAF
KFWA 290538Z 2906/3006 20008KT P6SM SCT250
     FM291400 18015G22KT P6SM BKN150
     FM291700 20020G30KT P6SM BKN060
      TEMPO 2921/3001 6SM -SHRA BKN035
     FM300100 24018G28KT P6SM BKN030
     FM300400 27014G22KT P6SM SCT030=



000
FTUS43 KIWX 282300
TAFFWA
TAF
KFWA 282335Z 2900/2924 31006KT P6SM SKC
     FM290200 VRB03KT P6SM SKC
     FM290600 17005KT P6SM FEW250
     FM291500 18017G24KT P6SM BKN150
     FM291800 19018G30KT 6SM -SHRA BR BKN040=



000
FTUS43 KIWX 282300
TAFFWA
TAF
KFWA 282335Z 2900/2924 31006KT P6SM SKC
     FM290200 VRB03KT P6SM SKC
     FM290600 17005KT P6SM FEW250
     FM291500 18017G24KT P6SM BKN150
     FM291800 19018G30KT 6SM -SHRA BR BKN040=



000
FTUS43 KIWX 281700
TAFFWA
TAF
KFWA 281720Z 2818/2918 01008KT P6SM SKC
     FM290300 18004KT P6SM SCT250
     FM291500 18017G24KT P6SM BKN150=



000
FTUS43 KIWX 281700
TAFFWA
TAF
KFWA 281720Z 2818/2918 01008KT P6SM SKC
     FM290300 18004KT P6SM SCT250
     FM291500 18017G24KT P6SM BKN150=



000
FTUS43 KIWX 281100
TAFFWA
TAF
KFWA 281120Z 2812/2912 01008KT P6SM SKC
     FM290100 18004KT P6SM SCT250=



000
FTUS43 KIWX 281100
TAFFWA
TAF
KFWA 281120Z 2812/2912 01008KT P6SM SKC
     FM290100 18004KT P6SM SCT250=



000
FTUS43 KIWX 280500
TAFFWA
TAF
KFWA 280539Z 2806/2906 35006KT P6SM SKC
     FM290100 18003KT P6SM SCT250=



000
FTUS43 KIWX 280500
TAFFWA
TAF
KFWA 280539Z 2806/2906 35006KT P6SM SKC
     FM290100 18003KT P6SM SCT250=



000
FTUS43 KIWX 272300
TAFFWA
TAF
KFWA 272340Z 2800/2824 32010KT P6SM SCT050
     FM280300 35005KT P6SM FEW250
     FM282000 33006KT P6SM FEW200=



000
FTUS43 KIWX 272300
TAFFWA
TAF
KFWA 272340Z 2800/2824 32010KT P6SM SCT050
     FM280300 35005KT P6SM FEW250
     FM282000 33006KT P6SM FEW200=



000
FTUS43 KIWX 271700
TAFFWA
TAF
KFWA 271728Z 2718/2818 33012G20KT P6SM BKN040
     FM280000 36006KT P6SM FEW250=



000
FTUS43 KIWX 271700
TAFFWA
TAF
KFWA 271728Z 2718/2818 33012G20KT P6SM BKN040
     FM280000 36006KT P6SM FEW250=



000
FTUS43 KIWX 271100
TAFFWA
TAF
KFWA 271120Z 2712/2812 33008KT P6SM SCT025 BKN050
      TEMPO 2712/2715 -SHSN BKN025
     FM271500 32012G20KT P6SM BKN040
     FM280000 35005KT P6SM SCT250=



000
FTUS43 KIWX 270500
TAFFWA
TAF
KFWA 270538Z 2706/2806 33008KT P6SM SCT050
     FM271500 32012G20KT P6SM SCT045
     FM280100 35005KT P6SM SCT250=



000
FTUS43 KIWX 270500
TAFFWA
TAF
KFWA 270538Z 2706/2806 33008KT P6SM SCT050
     FM271500 32012G20KT P6SM SCT045
     FM280100 35005KT P6SM SCT250=



000
FTUS43 KIWX 262300
TAFFWA
TAF
KFWA 262328Z 2700/2724 31015G23KT P6SM FEW040 SCT250
     FM270100 31008KT P6SM BKN040 OVC050
     FM271500 32012G20KT P6SM BKN040=



000
FTUS43 KIWX 261700
TAFFWA
TAF
KFWA 261728Z 2618/2718 30012G18KT P6SM OVC035
      TEMPO 2618/2620 OVC025
     FM270000 32008KT P6SM SCT030 BKN150=



000
FTUS43 KIWX 261700
TAFFWA
TAF
KFWA 261728Z 2618/2718 30012G18KT P6SM OVC035
      TEMPO 2618/2620 OVC025
     FM270000 32008KT P6SM SCT030 BKN150=



000
FTUS43 KIWX 261300 AAA
TAFFWA
TAF AMD
KFWA 261303Z 2613/2712 34004KT 3SM -RASN BR OVC009
     FM261500 32008KT P6SM OVC020
     FM261800 30012G18KT P6SM BKN035
     FM270000 32008KT P6SM SCT030 BKN150=



000
FTUS43 KIWX 261300 AAA
TAFFWA
TAF AMD
KFWA 261303Z 2613/2712 34004KT 3SM -RASN BR OVC009
     FM261500 32008KT P6SM OVC020
     FM261800 30012G18KT P6SM BKN035
     FM270000 32008KT P6SM SCT030 BKN150=



000
FTUS43 KIWX 261100
TAFFWA
TAF
KFWA 261139Z 2612/2712 33004KT 3SM -RASN BR OVC012
     FM261400 32008KT P6SM OVC020
     FM261800 30012G18KT P6SM BKN035
     FM270000 32008KT P6SM SCT030 BKN150=



000
FTUS43 KIWX 261100
TAFFWA
TAF
KFWA 261139Z 2612/2712 33004KT 3SM -RASN BR OVC012
     FM261400 32008KT P6SM OVC020
     FM261800 30012G18KT P6SM BKN035
     FM270000 32008KT P6SM SCT030 BKN150=



000
FTUS43 KIWX 261100
TAFFWA
TAF
KFWA 261134Z 2612/2712 34004KT 2SM -RASN BR BKN008 OVC012
     FM261400 32008KT P6SM OVC020
     FM261800 30012G18KT P6SM BKN035
     FM270000 32008KT P6SM SCT030 BKN150=



000
FTUS43 KIWX 261100
TAFFWA
TAF
KFWA 261134Z 2612/2712 34004KT 2SM -RASN BR BKN008 OVC012
     FM261400 32008KT P6SM OVC020
     FM261800 30012G18KT P6SM BKN035
     FM270000 32008KT P6SM SCT030 BKN150=



    US Dept of Commerce
    National Oceanic and Atmospheric Administration
    National Weather Service
    1325 East West Highway
    Silver Spring, MD 20910
    Page Author: NWS Internet Services Team
Disclaimer
Information Quality
Credits
Glossary
Privacy Policy
Freedom of Information Act (FOIA)
About Us
Career Opportunities